createdAt,value
2018-10-09T14:13:59.381Z,11.00
2018-10-09T14:16:29.404Z,21.70
2018-10-09T14:18:59.152Z,21.40
2018-10-09T14:21:29.227Z,21.50
2018-10-09T14:23:58.932Z,21.40
2018-10-09T14:28:58.242Z,21.30
2018-10-09T14:31:27.950Z,20.70
2018-10-09T14:33:57.714Z,20.50
2018-10-09T14:36:27.452Z,20.50
2018-10-09T14:38:57.183Z,20.30
2018-10-09T14:41:27.047Z,20.10
2018-10-09T14:43:56.798Z,20.00
2018-10-09T14:46:27.246Z,19.80
2018-10-09T14:48:57.008Z,19.90
2018-10-09T14:51:26.659Z,19.60
2018-10-09T14:53:56.369Z,19.70
2018-10-09T14:56:26.330Z,19.60
2018-10-09T14:58:56.013Z,19.60
2018-10-09T15:01:25.752Z,19.40
2018-10-09T15:03:55.446Z,19.10
2018-10-09T15:06:25.133Z,18.90
2018-10-09T15:08:54.773Z,18.80
2018-10-09T15:11:24.460Z,18.60
2018-10-09T15:13:54.170Z,18.50
2018-10-09T15:16:24.697Z,18.50
2018-10-09T15:18:54.388Z,18.30
2018-10-09T15:21:24.157Z,18.20
2018-10-09T15:23:53.955Z,18.20
2018-10-09T15:26:23.733Z,18.10
2018-10-09T15:28:53.625Z,18.00
2018-10-09T15:31:23.364Z,17.90
2018-10-09T15:33:53.111Z,17.90
2018-10-09T15:36:22.744Z,17.80
2018-10-09T15:38:52.636Z,17.70
2018-10-09T15:41:22.528Z,17.60
2018-10-09T15:43:52.188Z,17.60
2018-10-09T15:46:21.952Z,17.50
2018-10-09T15:48:51.838Z,17.40
2018-10-09T15:51:21.611Z,17.30
2018-10-09T15:53:51.531Z,17.20
2018-10-09T15:56:21.269Z,17.10
2018-10-09T15:58:50.925Z,17.00
2018-10-09T16:01:21.468Z,16.90
2018-10-09T16:03:51.094Z,16.90
2018-10-09T16:06:20.764Z,16.80
2018-10-09T16:08:52.189Z,16.70
2018-10-09T16:11:21.908Z,16.50
2018-10-09T16:13:51.613Z,16.30
2018-10-09T16:16:21.303Z,16.10
2018-10-09T16:18:51.067Z,16.00
2018-10-09T16:21:20.754Z,15.80
2018-10-09T16:23:51.894Z,15.70
2018-10-09T16:26:21.671Z,15.60
2018-10-09T16:28:51.383Z,15.40
2018-10-09T16:31:21.552Z,15.30
2018-10-09T16:33:51.413Z,15.30
2018-10-09T16:36:21.036Z,15.20
2018-10-09T16:38:52.140Z,15.10
2018-10-09T16:41:21.776Z,15.00
2018-10-09T16:43:51.495Z,14.90
2018-10-09T16:46:21.203Z,14.80
2018-10-09T16:48:50.892Z,14.80
2018-10-09T16:51:20.569Z,14.80
2018-10-09T16:53:52.601Z,14.80
2018-10-09T16:56:22.725Z,14.80
2018-10-09T16:59:00.617Z,14.70
2018-10-09T17:01:31.367Z,14.60
2018-10-09T17:04:02.055Z,14.60
2018-10-09T17:06:31.800Z,14.50
2018-10-09T17:09:01.458Z,14.40
2018-10-09T17:11:31.698Z,14.30
2018-10-09T17:14:02.057Z,14.20
2018-10-09T17:16:32.684Z,14.10
2018-10-09T17:19:02.396Z,14.00
2018-10-09T17:21:32.314Z,13.90
2018-10-09T17:24:02.042Z,13.80
2018-10-09T17:26:31.708Z,13.80
2018-10-09T17:29:01.376Z,13.70
2018-10-09T17:31:31.963Z,13.70
2018-10-09T17:34:01.674Z,13.60
2018-10-09T17:36:31.383Z,13.50
2018-10-09T17:39:01.137Z,13.50
2018-10-09T17:41:31.894Z,13.50
2018-10-09T17:44:01.670Z,13.40
2018-10-09T17:46:31.613Z,13.40
2018-10-09T17:49:01.409Z,13.40
2018-10-09T17:51:33.067Z,13.50
2018-10-09T17:54:02.869Z,13.60
2018-10-09T17:56:33.610Z,13.60
2018-10-09T17:59:03.819Z,13.50
2018-10-09T18:01:33.618Z,13.40
2018-10-09T18:04:06.814Z,13.20
2018-10-09T18:06:37.241Z,13.20
2018-10-09T18:09:11.816Z,13.10
2018-10-09T18:11:42.385Z,13.10
2018-10-09T18:14:12.692Z,13.20
2018-10-09T18:16:42.532Z,13.20
2018-10-09T18:19:12.222Z,13.30
2018-10-09T18:21:43.557Z,13.50
2018-10-09T18:24:15.768Z,13.60
2018-10-09T18:26:45.923Z,13.70
2018-10-09T18:29:15.620Z,13.70
2018-10-09T18:31:45.266Z,13.80
2018-10-09T18:34:14.944Z,13.80
2018-10-09T18:36:45.068Z,13.70
2018-10-09T18:39:16.059Z,13.70
2018-10-09T18:41:47.051Z,13.70
2018-10-09T18:44:16.803Z,13.70
2018-10-09T18:46:46.448Z,13.70
2018-10-09T18:49:17.003Z,13.70
2018-10-09T18:51:46.957Z,13.70
2018-10-09T18:54:16.814Z,13.60
2018-10-09T18:56:47.139Z,13.60
2018-10-09T18:59:16.801Z,13.50
2018-10-09T19:01:47.134Z,13.50
2018-10-09T19:04:17.014Z,13.50
2018-10-09T19:06:46.711Z,13.50
2018-10-09T19:09:16.413Z,13.50
2018-10-09T19:11:47.280Z,13.50
2018-10-09T19:14:20.787Z,13.40
2018-10-09T19:16:51.485Z,13.30
2018-10-09T19:19:21.225Z,13.30
2018-10-09T19:21:51.554Z,13.30
2018-10-09T19:24:21.800Z,13.20
2018-10-09T19:26:52.493Z,13.20
2018-10-09T19:29:22.420Z,13.20
2018-10-09T19:31:54.547Z,13.20
2018-10-09T19:34:24.870Z,13.20
2018-10-09T19:36:57.009Z,13.10
2018-10-09T19:39:26.978Z,13.10
2018-10-09T19:41:56.883Z,13.00
2018-10-09T19:44:26.679Z,13.10
2018-10-09T19:49:38.839Z,12.90
2018-10-09T19:52:08.558Z,12.90
2018-10-09T19:54:39.154Z,12.80
2018-10-09T19:57:09.150Z,12.80
2018-10-09T19:59:38.987Z,12.80
2018-10-09T20:02:08.752Z,12.70
2018-10-09T20:04:39.542Z,12.70
2018-10-09T20:07:09.251Z,12.70
2018-10-09T20:09:39.524Z,12.70
2018-10-09T20:12:12.181Z,12.70
2018-10-09T20:14:41.976Z,12.70
2018-10-09T20:17:12.021Z,12.60
2018-10-09T20:19:41.832Z,12.60
2018-10-09T20:22:12.220Z,12.60
2018-10-09T20:24:43.737Z,12.60
2018-10-09T20:27:13.333Z,12.60
2018-10-09T20:29:43.094Z,12.60
2018-10-09T20:32:12.881Z,12.60
2018-10-09T20:34:42.712Z,12.60
2018-10-09T20:37:12.403Z,12.60
2018-10-09T20:39:43.364Z,12.60
2018-10-09T20:42:13.034Z,12.60
2018-10-09T20:44:42.970Z,12.60
2018-10-09T20:47:12.780Z,12.60
2018-10-09T20:49:42.567Z,12.50
2018-10-09T20:52:12.333Z,12.50
2018-10-09T20:54:45.699Z,12.40
2018-10-09T20:57:15.851Z,12.40
2018-10-09T20:59:46.131Z,12.40
2018-10-09T21:02:26.275Z,12.30
2018-10-09T21:05:04.777Z,12.30
2018-10-09T21:07:34.735Z,12.30
2018-10-09T21:10:07.005Z,12.30
2018-10-09T21:12:36.835Z,12.20
2018-10-09T21:15:06.840Z,12.20
2018-10-09T21:17:36.820Z,12.20
2018-10-09T21:20:07.729Z,12.20
2018-10-09T21:22:37.827Z,12.20
2018-10-09T21:25:08.288Z,12.00
2018-10-09T21:27:39.101Z,11.90
2018-10-09T21:30:09.343Z,11.90
2018-10-09T21:32:39.699Z,11.80
2018-10-09T21:35:09.841Z,11.80
2018-10-09T21:37:46.266Z,11.80
2018-10-09T21:40:16.302Z,11.70
2018-10-09T21:42:46.458Z,11.70
2018-10-09T21:45:16.469Z,11.60
2018-10-09T22:05:19.222Z,11.50
2018-10-09T22:07:49.181Z,11.10
2018-10-09T22:10:19.039Z,11.20
2018-10-09T22:12:48.840Z,11.20
2018-10-09T22:15:18.599Z,11.30
2018-10-09T22:17:49.413Z,11.30
2018-10-09T22:20:19.213Z,11.40
2018-10-09T22:22:49.092Z,11.40
2018-10-09T22:25:18.928Z,11.30
2018-10-09T22:27:48.700Z,11.20
2018-10-09T22:30:18.453Z,11.20
2018-10-09T22:32:49.229Z,11.20
2018-10-09T22:35:18.938Z,11.20
2018-10-09T22:37:48.783Z,11.30
2018-10-09T22:40:18.446Z,11.30
2018-10-09T22:42:48.257Z,11.30
2018-10-09T22:45:18.149Z,11.30
2018-10-09T22:47:49.098Z,11.30
2018-10-09T22:50:19.762Z,11.20
2018-10-09T22:52:59.850Z,11.20
2018-10-09T22:55:29.857Z,11.20
2018-10-09T22:57:59.611Z,11.10
2018-10-09T23:00:29.420Z,11.10
2018-10-09T23:02:59.429Z,11.00
2018-10-09T23:05:29.169Z,11.00
2018-10-09T23:07:58.912Z,11.00
2018-10-09T23:10:28.630Z,11.00
2018-10-09T23:12:58.419Z,11.10
2018-10-09T23:15:28.043Z,11.10
2018-10-09T23:17:57.779Z,11.10
2018-10-09T23:20:27.507Z,11.10
2018-10-09T23:22:57.299Z,11.10
2018-10-09T23:25:27.052Z,11.20
2018-10-09T23:27:56.846Z,11.20
2018-10-09T23:30:26.645Z,11.10
2018-10-09T23:32:56.408Z,11.20
2018-10-09T23:35:26.171Z,11.10
2018-10-09T23:37:56.053Z,11.10
2018-10-09T23:40:25.801Z,11.10
2018-10-09T23:42:55.537Z,11.10
2018-10-09T23:45:25.211Z,11.10
2018-10-09T23:48:00.142Z,11.10
2018-10-09T23:50:30.052Z,11.10
2018-10-09T23:52:59.900Z,11.10
2018-10-09T23:55:29.739Z,11.00
2018-10-09T23:57:59.601Z,11.00
